Time;durP1;ratioP1;P1;durP2;ratioP2;P2;SDS_P1;SDS_P2;PMS_P1;PMS_P2;Temp;Humidity;BMP_temperature;BMP_pressure;BME280_temperature;BME280_humidity;BME280_pressure;Samples;Min_cycle;Max_cycle;Signal;HPM_P1;HPM_P2
2022/01/23 00:00:18;;;;;;;;;;;2.60;99.90;;;;;;5053518;28;19916;-46
2022/01/23 00:02:45;;;;;;;;;;;2.60;99.90;;;;;;5053722;28;20418;-44
2022/01/23 00:05:10;;;;;;;;;;;2.60;99.90;;;;;;5053040;28;19948;-49
2022/01/23 00:07:37;;;;;;;;;;;2.70;99.90;;;;;;5052922;28;19959;-45
2022/01/23 00:10:04;;;;;;;;;;;2.70;99.90;;;;;;5055983;28;19915;-48
2022/01/23 00:12:34;;;;;;;;;;;2.70;99.90;;;;;;5056983;28;19996;-43
2022/01/23 00:17:44;;;;;;;;;;;2.70;99.90;;;;;;5056787;28;20432;-43
2022/01/23 00:20:11;;;;;;;;;;;2.80;99.90;;;;;;5056732;28;19913;-44
2022/01/23 00:22:46;;;;;;;;;;;2.80;99.90;;;;;;5056770;28;19909;-45
2022/01/23 00:30:42;;;;;;;;;;;2.70;99.90;;;;;;5056575;28;19938;-45
2022/01/23 00:33:08;;;;;;;;;;;2.70;99.90;;;;;;5038911;28;19915;-44
2022/01/23 00:35:34;;;;;;;;;;;2.70;99.90;;;;;;5056031;28;19928;-44
2022/01/23 00:38:00;;;;;;;;;;;2.60;99.90;;;;;;5056736;28;19936;-44
2022/01/23 00:40:27;;;;;;;;;;;2.80;99.90;;;;;;5056338;28;19959;-47
2022/01/23 00:42:56;;;;;;;;;;;2.80;99.90;;;;;;5056210;28;19909;-46
2022/01/23 00:45:41;;;;;;;;;;;2.80;99.90;;;;;;5056578;28;19913;-47
2022/01/23 00:48:08;;;;;;;;;;;2.80;99.90;;;;;;5056517;28;19913;-46
2022/01/23 00:50:42;;;;;;;;;;;2.80;99.90;;;;;;5056397;28;20007;-46
2022/01/23 00:53:09;;;;;;;;;;;2.80;99.90;;;;;;5056026;28;20334;-45
2022/01/23 00:55:35;;;;;;;;;;;2.80;99.90;;;;;;5055932;28;19966;-47
2022/01/23 00:58:01;;;;;;;;;;;2.70;99.90;;;;;;5055944;28;19996;-44
2022/01/23 01:00:26;;;;;;;;;;;2.80;99.90;;;;;;5038351;28;20003;-46
2022/01/23 01:02:52;;;;;;;;;;;2.80;99.90;;;;;;5056161;28;19916;-46
2022/01/23 01:05:18;;;;;;;;;;;2.80;99.90;;;;;;5056157;28;20007;-44
2022/01/23 01:07:44;;;;;;;;;;;2.70;99.90;;;;;;5038310;28;19963;-44
2022/01/23 01:10:17;;;;;;;;;;;2.60;99.90;;;;;;5055970;28;19913;-43
2022/01/23 01:12:45;;;;;;;;;;;2.70;99.90;;;;;;5056155;28;19916;-44
2022/01/23 01:31:23;;;;;;;;;;;2.80;99.90;;;;;;5055617;28;20373;-43
2022/01/23 01:33:58;;;;;;;;;;;2.80;99.90;;;;;;5037607;28;19932;-46
2022/01/23 01:39:01;;;;;;;;;;;2.90;99.90;;;;;;5055582;28;20012;-44
2022/01/23 01:41:27;;;;;;;;;;;3.00;99.90;;;;;;5055391;28;20347;-43
2022/01/23 01:43:53;;;;;;;;;;;3.00;99.90;;;;;;5055377;28;19915;-47
2022/01/23 01:46:19;;;;;;;;;;;3.00;99.90;;;;;;5055251;28;19908;-45
2022/01/23 01:48:45;;;;;;;;;;;3.10;99.90;;;;;;5055498;28;20267;-48
2022/01/23 01:51:16;;;;;;;;;;;3.10;99.90;;;;;;5037387;28;19919;-46
2022/01/23 01:53:50;;;;;;;;;;;3.10;99.90;;;;;;5055014;28;19915;-47
2022/01/23 01:56:15;;;;;;;;;;;3.10;99.90;;;;;;5055253;28;19963;-44
2022/01/23 02:02:44;;;;;;;;;;;3.10;99.90;;;;;;5055023;28;19909;-45
2022/01/23 02:54:54;;;;;;;;;;;3.00;99.90;;;;;;5054091;28;20002;-44
2022/01/23 02:57:39;;;;;;;;;;;3.00;99.90;;;;;;5053927;28;19913;-49
2022/01/23 03:00:11;;;;;;;;;;;3.10;99.90;;;;;;5053834;28;20321;-44
2022/01/23 03:02:42;;;;;;;;;;;3.00;99.90;;;;;;5053771;28;20279;-44
2022/01/23 03:05:12;;;;;;;;;;;3.00;99.90;;;;;;5054007;28;19917;-48
2022/01/23 03:10:26;;;;;;;;;;;3.00;99.90;;;;;;5054066;28;19916;-44
2022/01/23 03:26:31;;;;;;;;;;;3.00;99.90;;;;;;5053600;28;19916;-44
2022/01/23 03:32:11;;;;;;;;;;;3.00;99.90;;;;;;5053727;28;19916;-45
2022/01/23 03:34:28;;;;;;;;;;;3.10;99.90;;;;;;5051990;28;20379;-44
2022/01/23 03:36:55;;;;;;;;;;;3.10;99.90;;;;;;5053690;28;19951;-45
2022/01/23 03:39:20;;;;;;;;;;;3.10;99.90;;;;;;5053318;28;19913;-45
2022/01/23 03:41:46;;;;;;;;;;;3.00;99.90;;;;;;5053666;28;19984;-47
2022/01/23 03:44:12;;;;;;;;;;;3.10;99.90;;;;;;5055304;28;19909;-44
2022/01/23 03:49:31;;;;;;;;;;;3.10;99.90;;;;;;5057759;28;19916;-46
2022/01/23 03:51:58;;;;;;;;;;;3.10;99.90;;;;;;5057233;28;19923;-44
2022/01/23 03:54:24;;;;;;;;;;;3.10;99.90;;;;;;5057495;28;19956;-45
2022/01/23 03:56:50;;;;;;;;;;;3.10;99.90;;;;;;5057904;28;19913;-45
2022/01/23 03:59:15;;;;;;;;;;;3.10;99.90;;;;;;5057819;28;19915;-46
2022/01/23 04:01:41;;;;;;;;;;;3.10;99.90;;;;;;5057251;28;19909;-48
2022/01/23 04:04:19;;;;;;;;;;;3.20;99.90;;;;;;5056996;28;20004;-43
2022/01/23 04:06:45;;;;;;;;;;;3.00;99.90;;;;;;5057409;28;19991;-44
2022/01/23 04:09:11;;;;;;;;;;;3.10;99.90;;;;;;5057088;28;19919;-43
2022/01/23 04:11:36;;;;;;;;;;;3.10;99.90;;;;;;5056759;28;20283;-45
2022/01/23 04:14:07;;;;;;;;;;;3.10;99.90;;;;;;5056825;28;19917;-45
2022/01/23 04:45:36;;;;;;;;;;;3.00;99.90;;;;;;5056589;28;19928;-44
2022/01/23 04:48:51;;;;;;;;;;;3.00;99.90;;;;;;5056245;28;19969;-45
2022/01/23 05:04:33;;;;;;;;;;;3.00;99.90;;;;;;5056252;28;19963;-46
2022/01/23 05:07:02;;;;;;;;;;;3.10;99.90;;;;;;5055966;28;20272;-46
2022/01/23 05:09:28;;;;;;;;;;;3.10;99.90;;;;;;5056021;28;19912;-44
2022/01/23 05:11:58;;;;;;;;;;;3.10;99.90;;;;;;5055981;28;20283;-48
2022/01/23 05:14:33;;;;;;;;;;;3.10;99.90;;;;;;5055462;28;19916;-45
2022/01/23 05:16:59;;;;;;;;;;;3.10;99.90;;;;;;5055826;28;19919;-46
2022/01/23 05:19:25;;;;;;;;;;;3.10;99.90;;;;;;5055535;28;19964;-47
2022/01/23 05:24:24;;;;;;;;;;;3.00;99.90;;;;;;5055434;28;19928;-47
2022/01/23 05:26:49;;;;;;;;;;;3.10;99.90;;;;;;5055753;28;20007;-48
2022/01/23 05:29:15;;;;;;;;;;;3.20;99.90;;;;;;5056065;28;20351;-45
2022/01/23 05:31:41;;;;;;;;;;;3.20;99.90;;;;;;5055756;28;19912;-47
2022/01/23 05:34:07;;;;;;;;;;;3.10;99.90;;;;;;5055712;28;19918;-45
2022/01/23 05:36:33;;;;;;;;;;;3.00;99.90;;;;;;5055576;28;19913;-46
2022/01/23 05:38:59;;;;;;;;;;;3.10;99.90;;;;;;5055368;28;19912;-46
2022/01/23 05:41:25;;;;;;;;;;;3.10;99.90;;;;;;5055170;28;20011;-47
2022/01/23 05:43:51;;;;;;;;;;;3.20;99.90;;;;;;5055774;28;20015;-47
2022/01/23 05:46:17;;;;;;;;;;;3.20;99.90;;;;;;5055414;28;20355;-47
2022/01/23 05:48:42;;;;;;;;;;;3.20;99.90;;;;;;5055337;28;19909;-45
2022/01/23 05:51:12;;;;;;;;;;;3.20;99.90;;;;;;5055344;28;19989;-47
2022/01/23 05:53:38;;;;;;;;;;;3.20;99.90;;;;;;5055367;28;19912;-45
2022/01/23 05:56:04;;;;;;;;;;;3.20;99.90;;;;;;5055123;28;20355;-45
2022/01/23 05:58:29;;;;;;;;;;;3.10;99.90;;;;;;5055181;28;20313;-45
2022/01/23 06:00:54;;;;;;;;;;;3.20;99.90;;;;;;5055086;28;19935;-45
2022/01/23 06:03:21;;;;;;;;;;;3.10;99.90;;;;;;5054976;28;19913;-46
2022/01/23 06:05:47;;;;;;;;;;;3.20;99.90;;;;;;5054505;28;19908;-47
2022/01/23 06:08:12;;;;;;;;;;;3.10;99.90;;;;;;5054531;28;19931;-47
2022/01/23 06:10:53;;;;;;;;;;;3.10;99.90;;;;;;5054610;28;19953;-47
2022/01/23 06:13:19;;;;;;;;;;;3.20;99.90;;;;;;5036843;28;19909;-44
2022/01/23 06:15:44;;;;;;;;;;;3.10;99.90;;;;;;5054635;28;19919;-46
2022/01/23 06:18:10;;;;;;;;;;;2.90;99.90;;;;;;5054775;28;20015;-44
2022/01/23 06:20:35;;;;;;;;;;;2.90;99.90;;;;;;5054436;28;20329;-44
2022/01/23 06:23:01;;;;;;;;;;;3.00;99.90;;;;;;5054576;28;19950;-48
2022/01/23 06:25:32;;;;;;;;;;;2.90;99.90;;;;;;5037152;28;20340;-45
2022/01/23 06:27:58;;;;;;;;;;;2.80;99.90;;;;;;5054320;28;20371;-47
2022/01/23 06:30:24;;;;;;;;;;;2.70;99.90;;;;;;5054533;28;19915;-46
2022/01/23 06:32:49;;;;;;;;;;;2.80;99.90;;;;;;5054458;28;19915;-45
2022/01/23 06:35:15;;;;;;;;;;;2.80;99.90;;;;;;5054174;28;19950;-47
2022/01/23 06:37:40;;;;;;;;;;;3.00;99.90;;;;;;5051252;28;20011;-45
2022/01/23 06:40:06;;;;;;;;;;;3.00;99.90;;;;;;5054124;28;19916;-45
2022/01/23 06:42:32;;;;;;;;;;;2.90;99.90;;;;;;5053996;28;19909;-45
2022/01/23 06:44:58;;;;;;;;;;;3.00;99.90;;;;;;5042689;28;19948;-45
2022/01/23 06:47:24;;;;;;;;;;;3.00;99.90;;;;;;5033934;28;19979;-46
2022/01/23 06:49:49;;;;;;;;;;;3.10;99.90;;;;;;5033978;28;19940;-44
2022/01/23 06:52:15;;;;;;;;;;;3.00;99.90;;;;;;5035728;28;20413;-46
2022/01/23 06:54:40;;;;;;;;;;;2.80;99.90;;;;;;5037382;28;19921;-45
2022/01/23 06:57:06;;;;;;;;;;;2.80;99.90;;;;;;5033694;28;19966;-44
2022/01/23 06:59:31;;;;;;;;;;;2.90;99.90;;;;;;5028726;28;20249;-45
2022/01/23 07:01:58;;;;;;;;;;;3.00;99.90;;;;;;5051806;28;20058;-43
2022/01/23 07:04:23;;;;;;;;;;;3.00;99.90;;;;;;5044645;28;19916;-44
2022/01/23 07:06:49;;;;;;;;;;;3.10;99.90;;;;;;5033323;28;19913;-43
2022/01/23 07:09:14;;;;;;;;;;;3.20;99.90;;;;;;5033110;28;19910;-44
2022/01/23 07:11:40;;;;;;;;;;;3.20;99.90;;;;;;5032920;28;20008;-47
2022/01/23 07:14:05;;;;;;;;;;;3.30;99.90;;;;;;5020491;28;20003;-45
2022/01/23 07:16:31;;;;;;;;;;;3.30;99.90;;;;;;5048803;28;19920;-46
2022/01/23 07:18:57;;;;;;;;;;;3.30;99.90;;;;;;5047543;28;19920;-44
2022/01/23 07:21:22;;;;;;;;;;;3.30;99.90;;;;;;5015366;28;19913;-46
2022/01/23 07:23:51;;;;;;;;;;;3.20;99.90;;;;;;5032852;28;19921;-46
2022/01/23 07:26:19;;;;;;;;;;;3.30;99.90;;;;;;5032800;28;19917;-45
2022/01/23 07:28:46;;;;;;;;;;;3.30;99.90;;;;;;5037454;28;19913;-45
2022/01/23 07:31:20;;;;;;;;;;;3.20;99.90;;;;;;5036372;28;19909;-46
2022/01/23 07:33:45;;;;;;;;;;;3.20;99.90;;;;;;5034051;28;19963;-46
2022/01/23 07:36:11;;;;;;;;;;;3.20;99.90;;;;;;5033012;28;19924;-49
2022/01/23 07:38:36;;;;;;;;;;;3.30;99.90;;;;;;5036163;28;19924;-46
2022/01/23 07:41:02;;;;;;;;;;;3.40;99.90;;;;;;5033388;28;19917;-48
2022/01/23 07:43:27;;;;;;;;;;;3.40;99.90;;;;;;5033729;28;20344;-44
2022/01/23 07:45:53;;;;;;;;;;;3.30;99.90;;;;;;5032916;28;19960;-47
2022/01/23 07:48:18;;;;;;;;;;;3.40;99.90;;;;;;5035079;28;19948;-46
2022/01/23 07:50:44;;;;;;;;;;;3.40;99.90;;;;;;5033562;28;19916;-42
2022/01/23 07:53:09;;;;;;;;;;;3.40;99.90;;;;;;5033043;28;19962;-47
2022/01/23 07:55:35;;;;;;;;;;;3.40;99.90;;;;;;5036070;28;19975;-44
2022/01/23 07:58:05;;;;;;;;;;;3.40;99.90;;;;;;5053364;28;19951;-47
2022/01/23 08:00:33;;;;;;;;;;;3.40;99.90;;;;;;5030733;28;20287;-44
2022/01/23 08:02:58;;;;;;;;;;;3.40;99.90;;;;;;5044460;28;19913;-43
2022/01/23 08:05:24;;;;;;;;;;;3.40;99.90;;;;;;5052378;28;20344;-43
2022/01/23 08:07:49;;;;;;;;;;;3.50;99.90;;;;;;5052212;28;19913;-45
2022/01/23 08:10:16;;;;;;;;;;;3.50;99.90;;;;;;5040624;28;20316;-45
2022/01/23 08:12:41;;;;;;;;;;;3.50;99.90;;;;;;5033439;28;19913;-47
2022/01/23 08:15:07;;;;;;;;;;;3.40;99.90;;;;;;5052200;28;20004;-44
2022/01/23 08:17:33;;;;;;;;;;;3.30;99.90;;;;;;5039864;28;19948;-45
2022/01/23 08:19:59;;;;;;;;;;;3.30;99.90;;;;;;5033531;28;20338;-43
2022/01/23 08:22:26;;;;;;;;;;;3.40;99.90;;;;;;5035524;28;19959;-44
2022/01/23 08:24:51;;;;;;;;;;;3.30;99.90;;;;;;5052467;28;19921;-45
2022/01/23 08:27:17;;;;;;;;;;;3.20;99.90;;;;;;5052638;28;19959;-45
2022/01/23 08:29:43;;;;;;;;;;;3.20;99.90;;;;;;5053264;28;20371;-43
2022/01/23 08:32:09;;;;;;;;;;;3.30;99.90;;;;;;5054983;28;19919;-46
2022/01/23 08:34:35;;;;;;;;;;;3.30;99.90;;;;;;5052045;28;19909;-44
2022/01/23 08:37:04;;;;;;;;;;;3.30;99.90;;;;;;5056435;28;19917;-45
2022/01/23 08:39:32;;;;;;;;;;;3.20;99.90;;;;;;5055612;28;20415;-43
2022/01/23 08:41:58;;;;;;;;;;;3.40;99.90;;;;;;5055503;28;19928;-50
2022/01/23 08:44:25;;;;;;;;;;;3.50;99.90;;;;;;5055728;28;19913;-46
2022/01/23 08:46:50;;;;;;;;;;;3.50;99.90;;;;;;5037862;28;20273;-42
2022/01/23 08:49:17;;;;;;;;;;;3.40;99.90;;;;;;5038146;28;19913;-45
2022/01/23 08:51:43;;;;;;;;;;;3.50;99.90;;;;;;5055279;28;19919;-47
2022/01/23 08:54:09;;;;;;;;;;;3.60;99.90;;;;;;5054798;28;20276;-47
2022/01/23 08:56:35;;;;;;;;;;;3.70;99.90;;;;;;5055260;28;19923;-46
2022/01/23 08:59:01;;;;;;;;;;;3.80;99.90;;;;;;5051133;28;19921;-48
2022/01/23 09:01:27;;;;;;;;;;;3.70;99.90;;;;;;5056017;28;20352;-47
2022/01/23 09:03:53;;;;;;;;;;;3.90;99.90;;;;;;5047146;28;19909;-47
2022/01/23 09:06:19;;;;;;;;;;;4.10;99.90;;;;;;5035298;28;19948;-48
2022/01/23 09:08:46;;;;;;;;;;;4.10;99.90;;;;;;5033848;28;19916;-46
2022/01/23 09:16:31;;;;;;;;;;;4.20;99.90;;;;;;5035332;28;19963;-47
2022/01/23 09:18:56;;;;;;;;;;;4.20;99.90;;;;;;5035825;28;20306;-45
2022/01/23 09:21:22;;;;;;;;;;;4.20;99.90;;;;;;5035398;28;19960;-47
2022/01/23 09:23:47;;;;;;;;;;;4.40;99.90;;;;;;5035555;28;19929;-45
2022/01/23 09:26:16;;;;;;;;;;;4.40;99.90;;;;;;5035136;28;19932;-47
2022/01/23 09:28:44;;;;;;;;;;;4.40;99.90;;;;;;5041051;28;19920;-46
2022/01/23 09:31:12;;;;;;;;;;;4.40;99.90;;;;;;5053439;28;19920;-44
2022/01/23 09:33:37;;;;;;;;;;;4.50;99.90;;;;;;5046615;28;19967;-47
2022/01/23 09:36:03;;;;;;;;;;;4.30;99.90;;;;;;5054399;28;20277;-45
2022/01/23 09:38:28;;;;;;;;;;;4.30;99.90;;;;;;5054834;28;19919;-46
2022/01/23 09:40:56;;;;;;;;;;;4.40;99.90;;;;;;5054411;28;19916;-47
2022/01/23 09:43:23;;;;;;;;;;;4.30;99.90;;;;;;5055142;28;19915;-49
2022/01/23 09:45:52;;;;;;;;;;;4.60;99.90;;;;;;5054818;28;19915;-46
2022/01/23 09:48:18;;;;;;;;;;;4.60;99.90;;;;;;5055359;28;20410;-47
2022/01/23 09:50:45;;;;;;;;;;;4.70;99.90;;;;;;5054677;28;19945;-45
2022/01/23 09:53:12;;;;;;;;;;;4.70;99.90;;;;;;5054393;28;19916;-44
2022/01/23 09:55:39;;;;;;;;;;;4.70;99.90;;;;;;5036635;28;19927;-47
2022/01/23 09:58:05;;;;;;;;;;;4.40;99.90;;;;;;5054787;28;19912;-47
2022/01/23 10:00:33;;;;;;;;;;;4.60;99.90;;;;;;5054179;28;20011;-43
2022/01/23 10:02:59;;;;;;;;;;;4.70;99.90;;;;;;5054334;28;19916;-48
2022/01/23 10:05:25;;;;;;;;;;;4.70;99.90;;;;;;5036694;28;19908;-48
2022/01/23 10:07:51;;;;;;;;;;;4.90;99.90;;;;;;5054587;28;20321;-48
2022/01/23 10:10:22;;;;;;;;;;;5.20;99.90;;;;;;5054242;28;19909;-46
2022/01/23 10:12:54;;;;;;;;;;;5.30;99.90;;;;;;5054574;28;20051;-44
2022/01/23 10:15:20;;;;;;;;;;;5.20;99.90;;;;;;5054282;28;19919;-45
2022/01/23 10:17:46;;;;;;;;;;;5.00;99.90;;;;;;5054500;28;19913;-48
2022/01/23 10:20:12;;;;;;;;;;;5.10;99.90;;;;;;5054445;28;19931;-46
2022/01/23 10:22:40;;;;;;;;;;;5.20;99.90;;;;;;5054173;28;20363;-48
2022/01/23 10:25:09;;;;;;;;;;;5.10;99.90;;;;;;5054441;28;19909;-50
2022/01/23 10:27:49;;;;;;;;;;;5.20;99.90;;;;;;5054069;28;19912;-46
2022/01/23 10:30:19;;;;;;;;;;;5.10;99.90;;;;;;5054343;28;20276;-44
2022/01/23 10:32:54;;;;;;;;;;;5.10;99.90;;;;;;5054252;28;19915;-48
2022/01/23 10:35:20;;;;;;;;;;;4.90;99.90;;;;;;5053711;28;20450;-49
2022/01/23 10:37:46;;;;;;;;;;;4.90;99.90;;;;;;5053804;28;20008;-43
2022/01/23 10:40:12;;;;;;;;;;;5.10;99.90;;;;;;5054016;28;19991;-45
2022/01/23 10:48:00;;;;;;;;;;;4.90;99.90;;;;;;5036887;28;19959;-47
2022/01/23 10:50:26;;;;;;;;;;;4.80;99.90;;;;;;5046091;28;19909;-48
2022/01/23 10:52:53;;;;;;;;;;;4.90;99.90;;;;;;5052239;28;19920;-48
2022/01/23 10:55:32;;;;;;;;;;;5.00;99.90;;;;;;5049805;28;19917;-45
2022/01/23 10:58:00;;;;;;;;;;;5.30;99.90;;;;;;5052993;28;20375;-49
2022/01/23 11:00:26;;;;;;;;;;;5.40;99.90;;;;;;5052634;28;20347;-44
2022/01/23 11:02:51;;;;;;;;;;;5.40;99.90;;;;;;5052363;28;19944;-44
2022/01/23 11:05:19;;;;;;;;;;;5.60;99.90;;;;;;5052154;28;19995;-48
2022/01/23 11:07:48;;;;;;;;;;;5.40;99.90;;;;;;5053017;28;19958;-45
2022/01/23 11:10:14;;;;;;;;;;;5.20;99.90;;;;;;5052769;28;19909;-48
2022/01/23 11:18:04;;;;;;;;;;;5.00;99.90;;;;;;5052747;28;20023;-44
2022/01/23 11:20:29;;;;;;;;;;;4.90;99.90;;;;;;5050747;28;19921;-44
2022/01/23 11:23:13;;;;;;;;;;;4.80;99.90;;;;;;5050879;28;19921;-44
2022/01/23 11:25:40;;;;;;;;;;;5.10;99.90;;;;;;5052199;28;20406;-48
2022/01/23 11:28:06;;;;;;;;;;;5.40;99.90;;;;;;5052253;28;19948;-45
2022/01/23 11:30:36;;;;;;;;;;;5.60;99.90;;;;;;5032580;28;19936;-46
2022/01/23 11:33:03;;;;;;;;;;;5.40;99.90;;;;;;5052281;28;19913;-45
2022/01/23 11:35:28;;;;;;;;;;;5.10;99.90;;;;;;5034429;28;20402;-44
2022/01/23 11:37:54;;;;;;;;;;;4.90;99.90;;;;;;5051243;28;19960;-46
2022/01/23 11:54:34;;;;;;;;;;;5.50;99.90;;;;;;5048267;28;19919;-44
2022/01/23 11:57:02;;;;;;;;;;;5.40;99.90;;;;;;5051950;28;19924;-45
2022/01/23 11:59:33;;;;;;;;;;;5.60;99.90;;;;;;5034588;28;20345;-45
2022/01/23 12:02:11;;;;;;;;;;;6.00;99.90;;;;;;5049323;28;19910;-45
2022/01/23 12:04:38;;;;;;;;;;;6.10;99.90;;;;;;5052265;28;20412;-46
2022/01/23 12:07:15;;;;;;;;;;;6.10;99.90;;;;;;5055540;28;20363;-48
2022/01/23 12:10:04;;;;;;;;;;;6.20;99.90;;;;;;5052832;28;19959;-46
2022/01/23 12:12:45;;;;;;;;;;;6.60;99.90;;;;;;5055550;28;19909;-50
2022/01/23 12:18:21;;;;;;;;;;;6.50;99.90;;;;;;5051602;28;19923;-50
2022/01/23 12:20:48;;;;;;;;;;;6.80;99.90;;;;;;5055005;28;19940;-47
2022/01/23 12:23:16;;;;;;;;;;;6.60;99.90;;;;;;5049467;28;19921;-46
2022/01/23 12:25:42;;;;;;;;;;;6.60;99.90;;;;;;5036074;28;20555;-46
2022/01/23 12:28:28;;;;;;;;;;;6.70;99.90;;;;;;5053881;28;20016;-47
2022/01/23 12:31:17;;;;;;;;;;;6.80;99.90;;;;;;5053064;28;19912;-46
2022/01/23 12:33:42;;;;;;;;;;;6.80;99.90;;;;;;5053944;28;19935;-46
2022/01/23 12:36:14;;;;;;;;;;;6.60;99.90;;;;;;5053674;28;20351;-47
2022/01/23 12:38:43;;;;;;;;;;;6.30;99.90;;;;;;5052838;28;20244;-47
2022/01/23 12:41:25;;;;;;;;;;;6.40;99.90;;;;;;5054110;28;19912;-47
2022/01/23 12:43:53;;;;;;;;;;;6.40;99.90;;;;;;5051615;28;20383;-44
2022/01/23 12:46:26;;;;;;;;;;;6.50;99.90;;;;;;5054334;28;19948;-49
2022/01/23 12:48:51;;;;;;;;;;;6.30;99.90;;;;;;5056047;28;19909;-47
2022/01/23 12:51:17;;;;;;;;;;;6.20;99.90;;;;;;5056042;28;19908;-44
2022/01/23 12:53:51;;;;;;;;;;;6.40;99.90;;;;;;5053434;28;19916;-45
2022/01/23 12:56:19;;;;;;;;;;;6.20;99.90;;;;;;5048914;28;20271;-46
2022/01/23 12:59:12;;;;;;;;;;;5.80;99.90;;;;;;5054651;28;20336;-46
2022/01/23 13:01:43;;;;;;;;;;;5.90;99.90;;;;;;5053800;28;19909;-45
2022/01/23 13:04:08;;;;;;;;;;;6.00;99.90;;;;;;5036663;28;19912;-44
2022/01/23 13:06:38;;;;;;;;;;;5.90;99.90;;;;;;5040797;28;19905;-44
2022/01/23 13:12:05;;;;;;;;;;;6.00;99.90;;;;;;5054974;28;19975;-47
2022/01/23 13:15:10;;;;;;;;;;;6.20;99.90;;;;;;5054711;28;19983;-47
2022/01/23 13:27:05;;;;;;;;;;;5.50;99.90;;;;;;4947987;28;20386;-47
2022/01/23 13:32:17;;;;;;;;;;;5.40;99.90;;;;;;5054835;28;19913;-47
2022/01/23 13:34:45;;;;;;;;;;;5.10;99.90;;;;;;5053554;28;19939;-48
2022/01/23 13:37:13;;;;;;;;;;;5.10;99.90;;;;;;5054427;28;20460;-44
2022/01/23 13:39:52;;;;;;;;;;;5.20;99.90;;;;;;5050350;28;19912;-44
2022/01/23 13:53:23;;;;;;;;;;;5.30;99.90;;;;;;5054596;28;20343;-47
2022/01/23 13:59:04;;;;;;;;;;;5.00;99.90;;;;;;4972871;28;19918;-44
2022/01/23 14:01:36;;;;;;;;;;;5.00;99.90;;;;;;4963320;28;20344;-42
2022/01/23 14:04:02;;;;;;;;;;;4.80;99.90;;;;;;5020401;28;19913;-47
2022/01/23 14:06:27;;;;;;;;;;;5.00;99.90;;;;;;5054421;28;19916;-45
2022/01/23 14:09:05;;;;;;;;;;;4.80;99.90;;;;;;5035856;28;19915;-47
2022/01/23 14:11:30;;;;;;;;;;;5.00;99.90;;;;;;5045719;28;19917;-47
2022/01/23 14:14:07;;;;;;;;;;;5.20;99.90;;;;;;5034377;28;19916;-42
2022/01/23 14:16:33;;;;;;;;;;;5.10;99.90;;;;;;5048685;28;20008;-48
2022/01/23 14:19:14;;;;;;;;;;;5.20;99.90;;;;;;5054221;28;19952;-43
2022/01/23 14:21:40;;;;;;;;;;;5.20;99.90;;;;;;5054066;28;20008;-47
2022/01/23 14:24:06;;;;;;;;;;;5.10;99.90;;;;;;5044298;28;19921;-45
2022/01/23 14:26:32;;;;;;;;;;;5.10;99.90;;;;;;5046091;28;19912;-46
2022/01/23 14:29:03;;;;;;;;;;;5.10;99.90;;;;;;5053193;28;19913;-45
2022/01/23 14:31:36;;;;;;;;;;;5.10;99.90;;;;;;5036048;28;19909;-47
2022/01/23 14:34:04;;;;;;;;;;;5.10;99.90;;;;;;5053596;28;19936;-45
2022/01/23 14:36:34;;;;;;;;;;;5.10;99.90;;;;;;5053988;28;20279;-49
2022/01/23 14:39:01;;;;;;;;;;;5.20;99.90;;;;;;5053696;28;20303;-47
2022/01/23 14:41:28;;;;;;;;;;;5.00;99.90;;;;;;5053645;28;19970;-45
2022/01/23 14:43:54;;;;;;;;;;;5.00;99.90;;;;;;5053523;28;19966;-46
2022/01/23 14:46:19;;;;;;;;;;;5.10;99.90;;;;;;5049459;28;19912;-46
2022/01/23 14:48:48;;;;;;;;;;;5.00;99.90;;;;;;5053655;28;20321;-46
2022/01/23 14:51:21;;;;;;;;;;;4.80;99.90;;;;;;5053933;28;19909;-45
2022/01/23 14:53:47;;;;;;;;;;;4.90;99.90;;;;;;5039089;28;20283;-46
2022/01/23 14:56:14;;;;;;;;;;;4.80;99.90;;;;;;5052619;28;19925;-45
2022/01/23 14:58:40;;;;;;;;;;;4.60;99.90;;;;;;5053437;28;19958;-43
2022/01/23 15:01:08;;;;;;;;;;;4.50;99.90;;;;;;5035331;28;20272;-45
2022/01/23 15:03:34;;;;;;;;;;;4.50;99.90;;;;;;5045196;28;20310;-44
2022/01/23 15:06:00;;;;;;;;;;;4.60;99.90;;;;;;5033456;28;19909;-44
2022/01/23 15:08:27;;;;;;;;;;;4.70;99.90;;;;;;5034343;28;19917;-47
2022/01/23 15:10:54;;;;;;;;;;;4.90;99.90;;;;;;5049229;28;19919;-48
2022/01/23 15:13:21;;;;;;;;;;;4.90;99.90;;;;;;5053784;28;20216;-45
2022/01/23 15:15:46;;;;;;;;;;;5.00;99.90;;;;;;5053124;28;19917;-44
2022/01/23 15:18:15;;;;;;;;;;;5.00;99.90;;;;;;5052912;28;19924;-46
2022/01/23 15:20:41;;;;;;;;;;;5.10;99.90;;;;;;5053193;28;20359;-47
2022/01/23 15:23:07;;;;;;;;;;;5.10;99.90;;;;;;5048229;28;19931;-45
2022/01/23 15:25:33;;;;;;;;;;;5.10;99.90;;;;;;5052309;28;20368;-44
2022/01/23 15:27:59;;;;;;;;;;;5.20;99.90;;;;;;5038722;28;20390;-48
2022/01/23 15:30:26;;;;;;;;;;;5.10;99.90;;;;;;5049353;28;19912;-47
2022/01/23 15:32:53;;;;;;;;;;;5.20;99.90;;;;;;5052877;28;20000;-44
2022/01/23 15:35:19;;;;;;;;;;;5.30;99.90;;;;;;5052930;28;19917;-48
2022/01/23 15:37:45;;;;;;;;;;;5.20;99.90;;;;;;5051572;28;19921;-48
2022/01/23 15:40:12;;;;;;;;;;;5.30;99.90;;;;;;5054339;28;19970;-44
2022/01/23 15:42:42;;;;;;;;;;;5.30;99.90;;;;;;5056493;28;19970;-46
2022/01/23 15:45:08;;;;;;;;;;;5.20;99.90;;;;;;5038945;28;19913;-51
2022/01/23 15:47:34;;;;;;;;;;;5.20;99.90;;;;;;5048733;28;20016;-46
2022/01/23 15:49:59;;;;;;;;;;;5.20;99.90;;;;;;5056756;28;20000;-46
2022/01/23 15:52:25;;;;;;;;;;;5.20;99.90;;;;;;5040381;28;20383;-44
2022/01/23 15:54:51;;;;;;;;;;;5.10;99.90;;;;;;5055442;28;19949;-44
2022/01/23 15:57:17;;;;;;;;;;;5.10;99.90;;;;;;5056636;28;20003;-50
2022/01/23 15:59:42;;;;;;;;;;;5.00;99.90;;;;;;5038715;28;19909;-49
2022/01/23 16:02:08;;;;;;;;;;;5.00;99.90;;;;;;5056081;28;19920;-50
2022/01/23 16:04:37;;;;;;;;;;;5.00;99.90;;;;;;5040141;28;19920;-46
2022/01/23 16:07:07;;;;;;;;;;;5.00;99.90;;;;;;5054331;28;19913;-45
2022/01/23 16:09:33;;;;;;;;;;;5.00;99.90;;;;;;5055118;28;20277;-50
2022/01/23 16:11:58;;;;;;;;;;;5.00;99.90;;;;;;5054878;28;19913;-48
2022/01/23 16:14:24;;;;;;;;;;;5.00;99.90;;;;;;5055957;28;19999;-44
2022/01/23 16:16:50;;;;;;;;;;;5.10;99.90;;;;;;5056732;28;19983;-43
2022/01/23 16:19:15;;;;;;;;;;;5.00;99.90;;;;;;5055814;28;20005;-45
2022/01/23 16:21:42;;;;;;;;;;;5.00;99.90;;;;;;5056499;28;19913;-43
2022/01/23 16:24:07;;;;;;;;;;;5.00;99.90;;;;;;5055385;28;19921;-44
2022/01/23 16:26:33;;;;;;;;;;;4.90;99.90;;;;;;5056168;28;19913;-47
2022/01/23 16:28:58;;;;;;;;;;;4.90;99.90;;;;;;5055428;28;20279;-44
2022/01/23 16:31:24;;;;;;;;;;;4.90;99.90;;;;;;5053897;28;20318;-46
2022/01/23 16:33:49;;;;;;;;;;;4.90;99.90;;;;;;5055239;28;20325;-45
2022/01/23 16:36:15;;;;;;;;;;;4.90;99.90;;;;;;5056206;28;19970;-44
2022/01/23 16:38:41;;;;;;;;;;;4.80;99.90;;;;;;5055999;28;19921;-44
2022/01/23 16:41:07;;;;;;;;;;;4.90;99.90;;;;;;5055209;28;20403;-46
2022/01/23 16:43:33;;;;;;;;;;;4.80;99.90;;;;;;5055687;28;19912;-44
2022/01/23 16:45:59;;;;;;;;;;;4.90;99.90;;;;;;5055591;28;19908;-46
2022/01/23 16:48:25;;;;;;;;;;;4.90;99.90;;;;;;5055542;28;19960;-45
2022/01/23 16:50:50;;;;;;;;;;;4.90;99.90;;;;;;5055027;28;20387;-45
2022/01/23 16:53:16;;;;;;;;;;;4.90;99.90;;;;;;5056002;28;20003;-46
2022/01/23 16:55:42;;;;;;;;;;;4.90;99.90;;;;;;5055176;28;19913;-42
2022/01/23 16:58:07;;;;;;;;;;;4.90;99.90;;;;;;5055501;28;19925;-47
2022/01/23 17:00:33;;;;;;;;;;;4.90;99.90;;;;;;5055319;28;19909;-44
2022/01/23 17:02:59;;;;;;;;;;;4.90;99.90;;;;;;5054507;28;19912;-44
2022/01/23 17:05:25;;;;;;;;;;;4.80;99.90;;;;;;5054657;28;19908;-47
2022/01/23 17:07:51;;;;;;;;;;;4.90;99.90;;;;;;5055075;28;20338;-47
2022/01/23 17:10:17;;;;;;;;;;;4.80;99.90;;;;;;5055557;28;20007;-43
2022/01/23 17:12:42;;;;;;;;;;;4.70;99.90;;;;;;5054309;28;19913;-44
2022/01/23 17:15:08;;;;;;;;;;;4.60;99.90;;;;;;5054448;28;19959;-45
2022/01/23 17:17:34;;;;;;;;;;;4.60;99.90;;;;;;5054941;28;19963;-46
2022/01/23 17:20:00;;;;;;;;;;;4.70;99.90;;;;;;5053487;28;19913;-46
2022/01/23 17:22:25;;;;;;;;;;;4.80;99.90;;;;;;5049996;28;20394;-44
2022/01/23 17:24:51;;;;;;;;;;;4.80;99.90;;;;;;5053842;28;19925;-46
2022/01/23 17:27:16;;;;;;;;;;;4.90;99.90;;;;;;5054567;28;19909;-47
2022/01/23 17:29:42;;;;;;;;;;;4.80;99.90;;;;;;5054663;28;20326;-44
2022/01/23 17:32:09;;;;;;;;;;;4.80;99.90;;;;;;5036738;28;19920;-45
2022/01/23 17:34:36;;;;;;;;;;;4.90;99.90;;;;;;5054451;28;19912;-47
2022/01/23 17:37:01;;;;;;;;;;;4.90;99.90;;;;;;5046237;28;19932;-46
2022/01/23 17:39:27;;;;;;;;;;;4.90;99.90;;;;;;5054458;28;19917;-46
2022/01/23 17:41:53;;;;;;;;;;;4.90;99.90;;;;;;5050006;28;19913;-46
2022/01/23 17:44:19;;;;;;;;;;;4.80;99.90;;;;;;5040828;28;19913;-45
2022/01/23 17:46:46;;;;;;;;;;;4.80;99.90;;;;;;5057246;28;19913;-44
2022/01/23 17:49:21;;;;;;;;;;;4.90;99.90;;;;;;5055054;28;19995;-45
2022/01/23 17:51:47;;;;;;;;;;;4.90;99.90;;;;;;5042113;28;20359;-45
2022/01/23 17:54:12;;;;;;;;;;;4.80;99.90;;;;;;5035285;28;20007;-45
2022/01/23 17:56:38;;;;;;;;;;;4.80;99.90;;;;;;5034862;28;19960;-47
2022/01/23 17:59:04;;;;;;;;;;;4.70;99.90;;;;;;5047491;28;19912;-46
2022/01/23 18:01:30;;;;;;;;;;;4.70;99.90;;;;;;5054086;28;19909;-45
2022/01/23 18:03:57;;;;;;;;;;;4.70;99.90;;;;;;5053562;28;20290;-46